sensor_id;sensor_type;location;lat;lon;timestamp;P1;durP1;ratioP1;P2;durP2;ratioP2
58756;SDS011;44527;47.460;19.016;2023-02-01T00:00:12;4.75;;;1.70;;
58756;SDS011;44527;47.460;19.016;2023-02-01T00:03:15;3.72;;;1.48;;
58756;SDS011;44527;47.460;19.016;2023-02-01T00:06:20;4.53;;;1.73;;
58756;SDS011;44527;47.460;19.016;2023-02-01T00:09:23;3.05;;;1.48;;
58756;SDS011;44527;47.460;19.016;2023-02-01T00:12:25;4.62;;;1.30;;
58756;SDS011;44527;47.460;19.016;2023-02-01T00:15:28;2.87;;;1.73;;
58756;SDS011;44527;47.460;19.016;2023-02-01T00:18:30;6.07;;;2.12;;
58756;SDS011;44527;47.460;19.016;2023-02-01T00:21:33;9.77;;;2.40;;
58756;SDS011;44527;47.460;19.016;2023-02-01T00:24:35;5.10;;;1.42;;
58756;SDS011;44527;47.460;19.016;2023-02-01T00:27:38;3.83;;;1.23;;
58756;SDS011;44527;47.460;19.016;2023-02-01T00:30:40;10.27;;;1.80;;
58756;SDS011;44527;47.460;19.016;2023-02-01T00:33:42;2.47;;;1.15;;
58756;SDS011;44527;47.460;19.016;2023-02-01T00:36:48;7.15;;;2.00;;
58756;SDS011;44527;47.460;19.016;2023-02-01T00:39:51;6.35;;;1.87;;
58756;SDS011;44527;47.460;19.016;2023-02-01T00:42:53;3.47;;;1.62;;
58756;SDS011;44527;47.460;19.016;2023-02-01T00:45:55;6.20;;;1.73;;
58756;SDS011;44527;47.460;19.016;2023-02-01T00:48:58;4.18;;;1.58;;
58756;SDS011;44527;47.460;19.016;2023-02-01T00:52:00;5.55;;;1.70;;
58756;SDS011;44527;47.460;19.016;2023-02-01T00:55:02;5.60;;;1.70;;
58756;SDS011;44527;47.460;19.016;2023-02-01T00:58:05;3.95;;;1.62;;
58756;SDS011;44527;47.460;19.016;2023-02-01T01:01:12;4.22;;;1.73;;
58756;SDS011;44527;47.460;19.016;2023-02-01T01:04:17;5.55;;;1.77;;
58756;SDS011;44527;47.460;19.016;2023-02-01T01:07:19;5.00;;;1.55;;
58756;SDS011;44527;47.460;19.016;2023-02-01T01:10:21;4.57;;;1.80;;
58756;SDS011;44527;47.460;19.016;2023-02-01T01:13:24;7.18;;;1.98;;
58756;SDS011;44527;47.460;19.016;2023-02-01T01:16:27;2.47;;;1.42;;
58756;SDS011;44527;47.460;19.016;2023-02-01T01:19:31;7.70;;;1.52;;
58756;SDS011;44527;47.460;19.016;2023-02-01T01:22:34;4.10;;;1.70;;
58756;SDS011;44527;47.460;19.016;2023-02-01T01:25:37;7.03;;;1.67;;
58756;SDS011;44527;47.460;19.016;2023-02-01T01:28:43;2.92;;;1.62;;
58756;SDS011;44527;47.460;19.016;2023-02-01T01:31:45;6.72;;;2.20;;
58756;SDS011;44527;47.460;19.016;2023-02-01T01:34:48;4.70;;;1.87;;
58756;SDS011;44527;47.460;19.016;2023-02-01T01:37:50;3.62;;;1.58;;
58756;SDS011;44527;47.460;19.016;2023-02-01T01:40:53;5.65;;;1.90;;
58756;SDS011;44527;47.460;19.016;2023-02-01T01:43:56;5.00;;;1.73;;
58756;SDS011;44527;47.460;19.016;2023-02-01T01:47:01;7.90;;;1.87;;
58756;SDS011;44527;47.460;19.016;2023-02-01T01:50:03;4.93;;;1.83;;
58756;SDS011;44527;47.460;19.016;2023-02-01T01:53:11;5.25;;;1.98;;
58756;SDS011;44527;47.460;19.016;2023-02-01T01:56:17;5.60;;;1.85;;
58756;SDS011;44527;47.460;19.016;2023-02-01T01:59:20;5.70;;;2.10;;
58756;SDS011;44527;47.460;19.016;2023-02-01T02:02:25;4.18;;;1.60;;
58756;SDS011;44527;47.460;19.016;2023-02-01T02:05:28;3.30;;;1.60;;
58756;SDS011;44527;47.460;19.016;2023-02-01T02:08:31;3.55;;;1.30;;
58756;SDS011;44527;47.460;19.016;2023-02-01T02:11:34;3.47;;;1.60;;
58756;SDS011;44527;47.460;19.016;2023-02-01T02:14:37;5.55;;;1.58;;
58756;SDS011;44527;47.460;19.016;2023-02-01T02:17:44;3.87;;;1.45;;
58756;SDS011;44527;47.460;19.016;2023-02-01T02:21:08;5.75;;;1.70;;
58756;SDS011;44527;47.460;19.016;2023-02-01T02:24:27;4.12;;;1.60;;
58756;SDS011;44527;47.460;19.016;2023-02-01T02:31:38;2.47;;;1.50;;
58756;SDS011;44527;47.460;19.016;2023-02-01T02:38:52;4.50;;;1.80;;
58756;SDS011;44527;47.460;19.016;2023-02-01T02:42:01;3.62;;;1.70;;
58756;SDS011;44527;47.460;19.016;2023-02-01T02:49:15;2.72;;;1.80;;
58756;SDS011;44527;47.460;19.016;2023-02-01T02:52:20;6.10;;;1.80;;
58756;SDS011;44527;47.460;19.016;2023-02-01T02:55:42;2.40;;;1.50;;
58756;SDS011;44527;47.460;19.016;2023-02-01T02:58:45;4.03;;;2.00;;
58756;SDS011;44527;47.460;19.016;2023-02-01T03:02:07;3.72;;;1.45;;
58756;SDS011;44527;47.460;19.016;2023-02-01T03:05:32;4.78;;;1.95;;
58756;SDS011;44527;47.460;19.016;2023-02-01T03:08:36;4.18;;;1.87;;
58756;SDS011;44527;47.460;19.016;2023-02-01T03:11:38;2.10;;;1.30;;
58756;SDS011;44527;47.460;19.016;2023-02-01T03:15:08;4.12;;;1.87;;
58756;SDS011;44527;47.460;19.016;2023-02-01T03:18:35;2.75;;;1.80;;
58756;SDS011;44527;47.460;19.016;2023-02-01T03:21:52;3.00;;;1.58;;
58756;SDS011;44527;47.460;19.016;2023-02-01T03:25:07;2.45;;;1.50;;
58756;SDS011;44527;47.460;19.016;2023-02-01T03:28:15;2.20;;;1.48;;
58756;SDS011;44527;47.460;19.016;2023-02-01T03:31:21;3.30;;;1.60;;
58756;SDS011;44527;47.460;19.016;2023-02-01T03:34:24;2.42;;;1.35;;
58756;SDS011;44527;47.460;19.016;2023-02-01T03:37:27;2.15;;;1.55;;
58756;SDS011;44527;47.460;19.016;2023-02-01T03:40:30;3.87;;;1.33;;
58756;SDS011;44527;47.460;19.016;2023-02-01T03:43:42;4.32;;;1.50;;
58756;SDS011;44527;47.460;19.016;2023-02-01T03:47:16;3.05;;;1.37;;
58756;SDS011;44527;47.460;19.016;2023-02-01T03:50:25;3.35;;;1.65;;
58756;SDS011;44527;47.460;19.016;2023-02-01T03:53:30;3.12;;;1.55;;
58756;SDS011;44527;47.460;19.016;2023-02-01T03:56:33;2.65;;;1.75;;
58756;SDS011;44527;47.460;19.016;2023-02-01T03:59:40;7.03;;;1.62;;
58756;SDS011;44527;47.460;19.016;2023-02-01T04:02:43;3.37;;;1.42;;
58756;SDS011;44527;47.460;19.016;2023-02-01T04:05:46;2.83;;;1.70;;
58756;SDS011;44527;47.460;19.016;2023-02-01T04:08:49;2.65;;;1.40;;
58756;SDS011;44527;47.460;19.016;2023-02-01T04:11:52;2.22;;;1.45;;
58756;SDS011;44527;47.460;19.016;2023-02-01T04:14:54;3.10;;;1.42;;
58756;SDS011;44527;47.460;19.016;2023-02-01T04:17:57;2.03;;;1.25;;
58756;SDS011;44527;47.460;19.016;2023-02-01T04:20:59;3.05;;;1.50;;
58756;SDS011;44527;47.460;19.016;2023-02-01T04:24:03;2.70;;;1.12;;
58756;SDS011;44527;47.460;19.016;2023-02-01T04:27:06;2.28;;;1.23;;
58756;SDS011;44527;47.460;19.016;2023-02-01T04:30:09;1.90;;;0.95;;
58756;SDS011;44527;47.460;19.016;2023-02-01T04:33:12;1.90;;;1.40;;
58756;SDS011;44527;47.460;19.016;2023-02-01T04:36:16;1.55;;;1.15;;
58756;SDS011;44527;47.460;19.016;2023-02-01T04:39:21;2.65;;;1.67;;
58756;SDS011;44527;47.460;19.016;2023-02-01T04:42:23;2.33;;;1.48;;
58756;SDS011;44527;47.460;19.016;2023-02-01T04:45:26;2.22;;;0.90;;
58756;SDS011;44527;47.460;19.016;2023-02-01T04:48:28;1.90;;;1.23;;
58756;SDS011;44527;47.460;19.016;2023-02-01T04:51:31;3.55;;;1.27;;
58756;SDS011;44527;47.460;19.016;2023-02-01T04:54:34;3.05;;;1.30;;
58756;SDS011;44527;47.460;19.016;2023-02-01T04:57:36;3.03;;;1.20;;
58756;SDS011;44527;47.460;19.016;2023-02-01T05:00:40;2.25;;;1.35;;
58756;SDS011;44527;47.460;19.016;2023-02-01T05:03:43;3.22;;;1.20;;
58756;SDS011;44527;47.460;19.016;2023-02-01T05:06:45;2.05;;;1.37;;
58756;SDS011;44527;47.460;19.016;2023-02-01T05:09:48;3.12;;;1.02;;
58756;SDS011;44527;47.460;19.016;2023-02-01T05:12:50;2.20;;;1.27;;
58756;SDS011;44527;47.460;19.016;2023-02-01T05:16:11;1.67;;;1.00;;
58756;SDS011;44527;47.460;19.016;2023-02-01T05:19:14;3.00;;;1.15;;
58756;SDS011;44527;47.460;19.016;2023-02-01T05:22:16;5.55;;;1.98;;
58756;SDS011;44527;47.460;19.016;2023-02-01T05:25:18;2.97;;;1.55;;
58756;SDS011;44527;47.460;19.016;2023-02-01T05:28:21;0.85;;;0.82;;
58756;SDS011;44527;47.460;19.016;2023-02-01T05:31:23;2.53;;;1.50;;
58756;SDS011;44527;47.460;19.016;2023-02-01T05:34:25;1.75;;;1.23;;
58756;SDS011;44527;47.460;19.016;2023-02-01T05:37:28;3.20;;;1.55;;
58756;SDS011;44527;47.460;19.016;2023-02-01T05:40:30;4.68;;;1.62;;
58756;SDS011;44527;47.460;19.016;2023-02-01T05:43:33;2.15;;;1.30;;
58756;SDS011;44527;47.460;19.016;2023-02-01T05:46:35;2.70;;;1.42;;
58756;SDS011;44527;47.460;19.016;2023-02-01T05:49:38;3.75;;;1.77;;
58756;SDS011;44527;47.460;19.016;2023-02-01T05:52:40;2.37;;;1.50;;
58756;SDS011;44527;47.460;19.016;2023-02-01T05:55:43;2.22;;;1.20;;
58756;SDS011;44527;47.460;19.016;2023-02-01T05:58:47;2.70;;;1.65;;
58756;SDS011;44527;47.460;19.016;2023-02-01T06:01:50;2.70;;;1.25;;
58756;SDS011;44527;47.460;19.016;2023-02-01T06:04:52;8.55;;;1.50;;
58756;SDS011;44527;47.460;19.016;2023-02-01T06:07:55;2.10;;;1.30;;
58756;SDS011;44527;47.460;19.016;2023-02-01T06:11:02;2.35;;;1.20;;
58756;SDS011;44527;47.460;19.016;2023-02-01T06:14:07;2.75;;;1.55;;
58756;SDS011;44527;47.460;19.016;2023-02-01T06:17:10;2.15;;;1.42;;
58756;SDS011;44527;47.460;19.016;2023-02-01T06:20:13;1.58;;;0.93;;
58756;SDS011;44527;47.460;19.016;2023-02-01T06:23:17;4.45;;;1.42;;
58756;SDS011;44527;47.460;19.016;2023-02-01T06:26:19;2.20;;;1.23;;
58756;SDS011;44527;47.460;19.016;2023-02-01T06:29:22;2.03;;;1.17;;
58756;SDS011;44527;47.460;19.016;2023-02-01T06:32:25;2.00;;;1.20;;
58756;SDS011;44527;47.460;19.016;2023-02-01T06:35:27;2.85;;;1.52;;
58756;SDS011;44527;47.460;19.016;2023-02-01T06:38:30;2.55;;;1.50;;
58756;SDS011;44527;47.460;19.016;2023-02-01T06:41:33;2.08;;;1.17;;
58756;SDS011;44527;47.460;19.016;2023-02-01T06:44:36;2.37;;;1.50;;
58756;SDS011;44527;47.460;19.016;2023-02-01T06:47:39;4.07;;;1.30;;
58756;SDS011;44527;47.460;19.016;2023-02-01T06:50:42;3.12;;;1.30;;
58756;SDS011;44527;47.460;19.016;2023-02-01T06:53:44;2.25;;;1.20;;
58756;SDS011;44527;47.460;19.016;2023-02-01T06:56:46;4.18;;;1.35;;
58756;SDS011;44527;47.460;19.016;2023-02-01T06:59:49;2.65;;;1.23;;
58756;SDS011;44527;47.460;19.016;2023-02-01T07:02:53;1.85;;;1.25;;
58756;SDS011;44527;47.460;19.016;2023-02-01T07:05:57;3.15;;;1.30;;
58756;SDS011;44527;47.460;19.016;2023-02-01T07:09:03;3.75;;;1.27;;
58756;SDS011;44527;47.460;19.016;2023-02-01T07:12:05;2.55;;;1.20;;
58756;SDS011;44527;47.460;19.016;2023-02-01T07:15:08;2.10;;;1.23;;
58756;SDS011;44527;47.460;19.016;2023-02-01T07:18:11;2.55;;;1.55;;
58756;SDS011;44527;47.460;19.016;2023-02-01T07:21:16;3.85;;;1.62;;
58756;SDS011;44527;47.460;19.016;2023-02-01T07:24:19;2.00;;;1.25;;
58756;SDS011;44527;47.460;19.016;2023-02-01T07:27:22;2.05;;;1.40;;
58756;SDS011;44527;47.460;19.016;2023-02-01T07:30:27;2.03;;;1.30;;
58756;SDS011;44527;47.460;19.016;2023-02-01T07:33:30;4.75;;;1.50;;
58756;SDS011;44527;47.460;19.016;2023-02-01T07:36:33;3.00;;;1.67;;
58756;SDS011;44527;47.460;19.016;2023-02-01T07:39:36;3.28;;;1.80;;
58756;SDS011;44527;47.460;19.016;2023-02-01T07:42:39;3.35;;;1.50;;
58756;SDS011;44527;47.460;19.016;2023-02-01T07:45:42;3.50;;;1.70;;
58756;SDS011;44527;47.460;19.016;2023-02-01T07:48:45;4.65;;;2.40;;
58756;SDS011;44527;47.460;19.016;2023-02-01T07:51:49;2.12;;;1.35;;
58756;SDS011;44527;47.460;19.016;2023-02-01T07:54:52;3.35;;;2.33;;
58756;SDS011;44527;47.460;19.016;2023-02-01T07:57:56;4.03;;;1.90;;
58756;SDS011;44527;47.460;19.016;2023-02-01T08:01:00;4.30;;;1.50;;
58756;SDS011;44527;47.460;19.016;2023-02-01T08:04:28;4.95;;;1.40;;
58756;SDS011;44527;47.460;19.016;2023-02-01T08:07:30;3.22;;;1.67;;
58756;SDS011;44527;47.460;19.016;2023-02-01T08:10:33;5.03;;;1.98;;
58756;SDS011;44527;47.460;19.016;2023-02-01T08:13:37;2.47;;;1.48;;
58756;SDS011;44527;47.460;19.016;2023-02-01T08:16:39;3.80;;;1.48;;
58756;SDS011;44527;47.460;19.016;2023-02-01T08:19:42;2.72;;;1.30;;
58756;SDS011;44527;47.460;19.016;2023-02-01T08:22:45;5.22;;;1.75;;
58756;SDS011;44527;47.460;19.016;2023-02-01T08:25:47;3.90;;;1.98;;
58756;SDS011;44527;47.460;19.016;2023-02-01T08:28:55;3.83;;;1.70;;
58756;SDS011;44527;47.460;19.016;2023-02-01T08:31:59;6.30;;;2.20;;
58756;SDS011;44527;47.460;19.016;2023-02-01T08:35:02;4.28;;;2.05;;
58756;SDS011;44527;47.460;19.016;2023-02-01T08:38:08;4.30;;;1.80;;
58756;SDS011;44527;47.460;19.016;2023-02-01T08:41:12;5.78;;;2.20;;
58756;SDS011;44527;47.460;19.016;2023-02-01T08:44:18;3.53;;;1.70;;
58756;SDS011;44527;47.460;19.016;2023-02-01T08:47:30;4.10;;;1.92;;
58756;SDS011;44527;47.460;19.016;2023-02-01T08:50:33;2.87;;;1.67;;
58756;SDS011;44527;47.460;19.016;2023-02-01T08:53:36;5.95;;;2.40;;
58756;SDS011;44527;47.460;19.016;2023-02-01T08:56:40;4.43;;;2.20;;
58756;SDS011;44527;47.460;19.016;2023-02-01T08:59:43;4.43;;;1.90;;
58756;SDS011;44527;47.460;19.016;2023-02-01T09:02:46;4.72;;;2.35;;
58756;SDS011;44527;47.460;19.016;2023-02-01T09:05:49;4.62;;;2.03;;
58756;SDS011;44527;47.460;19.016;2023-02-01T09:08:53;5.60;;;1.95;;
58756;SDS011;44527;47.460;19.016;2023-02-01T09:11:56;4.47;;;1.80;;
58756;SDS011;44527;47.460;19.016;2023-02-01T09:14:58;3.55;;;1.90;;
58756;SDS011;44527;47.460;19.016;2023-02-01T09:18:02;4.62;;;1.80;;
58756;SDS011;44527;47.460;19.016;2023-02-01T09:21:05;4.93;;;2.30;;
58756;SDS011;44527;47.460;19.016;2023-02-01T09:24:11;6.82;;;2.22;;
58756;SDS011;44527;47.460;19.016;2023-02-01T09:27:14;4.95;;;1.90;;
58756;SDS011;44527;47.460;19.016;2023-02-01T09:30:17;7.65;;;2.70;;
58756;SDS011;44527;47.460;19.016;2023-02-01T09:33:20;8.05;;;2.53;;
58756;SDS011;44527;47.460;19.016;2023-02-01T09:36:24;6.20;;;2.10;;
58756;SDS011;44527;47.460;19.016;2023-02-01T09:39:27;5.35;;;2.35;;
58756;SDS011;44527;47.460;19.016;2023-02-01T09:42:42;6.50;;;2.30;;
58756;SDS011;44527;47.460;19.016;2023-02-01T09:46:31;3.78;;;2.00;;
58756;SDS011;44527;47.460;19.016;2023-02-01T09:49:32;6.93;;;2.42;;
58756;SDS011;44527;47.460;19.016;2023-02-01T09:52:45;5.37;;;2.33;;
58756;SDS011;44527;47.460;19.016;2023-02-01T09:56:04;5.32;;;2.60;;
58756;SDS011;44527;47.460;19.016;2023-02-01T10:02:37;5.57;;;2.35;;
58756;SDS011;44527;47.460;19.016;2023-02-01T10:22:41;5.70;;;2.67;;
58756;SDS011;44527;47.460;19.016;2023-02-01T10:29:22;6.43;;;2.85;;
58756;SDS011;44527;47.460;19.016;2023-02-01T10:32:29;3.80;;;2.50;;
58756;SDS011;44527;47.460;19.016;2023-02-01T10:35:34;3.25;;;2.37;;
58756;SDS011;44527;47.460;19.016;2023-02-01T10:38:41;7.72;;;2.60;;
58756;SDS011;44527;47.460;19.016;2023-02-01T10:41:45;4.12;;;2.60;;
58756;SDS011;44527;47.460;19.016;2023-02-01T10:44:48;6.53;;;2.67;;
58756;SDS011;44527;47.460;19.016;2023-02-01T10:47:51;6.00;;;3.03;;
58756;SDS011;44527;47.460;19.016;2023-02-01T10:51:15;5.32;;;2.53;;
58756;SDS011;44527;47.460;19.016;2023-02-01T10:54:31;3.75;;;2.40;;
58756;SDS011;44527;47.460;19.016;2023-02-01T10:57:48;4.72;;;2.72;;
58756;SDS011;44527;47.460;19.016;2023-02-01T11:01:08;5.50;;;2.90;;
58756;SDS011;44527;47.460;19.016;2023-02-01T11:04:18;5.65;;;3.03;;
58756;SDS011;44527;47.460;19.016;2023-02-01T11:07:24;9.25;;;2.55;;
58756;SDS011;44527;47.460;19.016;2023-02-01T11:10:38;6.97;;;2.78;;
58756;SDS011;44527;47.460;19.016;2023-02-01T11:13:45;4.32;;;2.80;;
58756;SDS011;44527;47.460;19.016;2023-02-01T11:17:00;4.03;;;2.65;;
58756;SDS011;44527;47.460;19.016;2023-02-01T11:20:06;6.63;;;3.33;;
58756;SDS011;44527;47.460;19.016;2023-02-01T11:23:21;9.88;;;3.30;;
58756;SDS011;44527;47.460;19.016;2023-02-01T11:26:26;8.02;;;3.37;;
58756;SDS011;44527;47.460;19.016;2023-02-01T11:29:38;7.15;;;3.80;;
58756;SDS011;44527;47.460;19.016;2023-02-01T11:32:48;9.30;;;3.85;;
58756;SDS011;44527;47.460;19.016;2023-02-01T11:35:52;7.03;;;3.70;;
58756;SDS011;44527;47.460;19.016;2023-02-01T11:42:17;8.18;;;4.07;;
58756;SDS011;44527;47.460;19.016;2023-02-01T11:45:27;8.30;;;4.00;;
58756;SDS011;44527;47.460;19.016;2023-02-01T11:48:32;9.02;;;4.00;;
58756;SDS011;44527;47.460;19.016;2023-02-01T11:51:46;12.13;;;5.07;;
58756;SDS011;44527;47.460;19.016;2023-02-01T11:58:46;5.95;;;3.62;;
58756;SDS011;44527;47.460;19.016;2023-02-01T12:38:19;5.87;;;2.17;;
58756;SDS011;44527;47.460;19.016;2023-02-01T12:52:10;6.03;;;2.17;;
58756;SDS011;44527;47.460;19.016;2023-02-01T12:58:21;4.55;;;2.60;;
58756;SDS011;44527;47.460;19.016;2023-02-01T13:01:48;5.85;;;2.55;;
58756;SDS011;44527;47.460;19.016;2023-02-01T13:05:12;7.95;;;2.90;;
58756;SDS011;44527;47.460;19.016;2023-02-01T13:08:21;9.90;;;2.62;;
58756;SDS011;44527;47.460;19.016;2023-02-01T13:11:28;6.72;;;2.55;;
58756;SDS011;44527;47.460;19.016;2023-02-01T13:17:45;4.28;;;2.22;;
58756;SDS011;44527;47.460;19.016;2023-02-01T13:21:08;4.28;;;2.03;;
58756;SDS011;44527;47.460;19.016;2023-02-01T13:24:36;5.40;;;2.42;;
58756;SDS011;44527;47.460;19.016;2023-02-01T13:27:46;8.02;;;2.60;;
58756;SDS011;44527;47.460;19.016;2023-02-01T13:37:53;6.47;;;3.08;;
58756;SDS011;44527;47.460;19.016;2023-02-01T13:41:23;5.40;;;2.40;;
58756;SDS011;44527;47.460;19.016;2023-02-01T13:44:50;4.85;;;2.47;;
58756;SDS011;44527;47.460;19.016;2023-02-01T13:47:58;6.85;;;2.87;;
58756;SDS011;44527;47.460;19.016;2023-02-01T13:51:05;5.37;;;2.40;;
58756;SDS011;44527;47.460;19.016;2023-02-01T13:57:34;9.45;;;2.65;;
58756;SDS011;44527;47.460;19.016;2023-02-01T14:00:43;8.88;;;2.67;;
58756;SDS011;44527;47.460;19.016;2023-02-01T14:03:50;3.87;;;2.60;;
58756;SDS011;44527;47.460;19.016;2023-02-01T14:06:53;5.53;;;2.60;;
58756;SDS011;44527;47.460;19.016;2023-02-01T14:10:45;3.12;;;2.03;;
58756;SDS011;44527;47.460;19.016;2023-02-01T14:13:41;10.25;;;2.50;;
58756;SDS011;44527;47.460;19.016;2023-02-01T14:16:44;7.30;;;2.10;;
58756;SDS011;44527;47.460;19.016;2023-02-01T14:23:44;6.20;;;2.65;;
58756;SDS011;44527;47.460;19.016;2023-02-01T14:26:49;5.72;;;2.60;;
58756;SDS011;44527;47.460;19.016;2023-02-01T14:29:58;7.95;;;2.83;;
58756;SDS011;44527;47.460;19.016;2023-02-01T14:33:11;5.03;;;2.33;;
58756;SDS011;44527;47.460;19.016;2023-02-01T14:36:20;8.00;;;2.95;;
58756;SDS011;44527;47.460;19.016;2023-02-01T14:39:27;6.72;;;2.60;;
58756;SDS011;44527;47.460;19.016;2023-02-01T14:42:38;7.18;;;2.70;;
58756;SDS011;44527;47.460;19.016;2023-02-01T14:48:47;6.72;;;3.47;;
58756;SDS011;44527;47.460;19.016;2023-02-01T14:51:50;8.38;;;2.83;;
58756;SDS011;44527;47.460;19.016;2023-02-01T14:54:54;10.13;;;3.90;;
58756;SDS011;44527;47.460;19.016;2023-02-01T14:57:59;4.32;;;1.95;;
58756;SDS011;44527;47.460;19.016;2023-02-01T15:04:38;3.25;;;1.45;;
58756;SDS011;44527;47.460;19.016;2023-02-01T15:07:43;4.72;;;1.58;;
58756;SDS011;44527;47.460;19.016;2023-02-01T15:10:47;2.70;;;1.35;;
58756;SDS011;44527;47.460;19.016;2023-02-01T15:13:52;1.80;;;1.30;;
58756;SDS011;44527;47.460;19.016;2023-02-01T15:16:58;3.60;;;1.30;;
58756;SDS011;44527;47.460;19.016;2023-02-01T15:20:02;2.87;;;0.85;;
58756;SDS011;44527;47.460;19.016;2023-02-01T15:23:16;1.90;;;1.12;;
58756;SDS011;44527;47.460;19.016;2023-02-01T15:26:29;1.80;;;0.85;;
58756;SDS011;44527;47.460;19.016;2023-02-01T15:29:34;2.15;;;1.05;;
58756;SDS011;44527;47.460;19.016;2023-02-01T15:32:37;6.15;;;1.00;;
58756;SDS011;44527;47.460;19.016;2023-02-01T15:35:42;4.43;;;1.12;;
58756;SDS011;44527;47.460;19.016;2023-02-01T15:38:50;4.28;;;1.58;;
58756;SDS011;44527;47.460;19.016;2023-02-01T15:42:31;1.87;;;1.00;;
58756;SDS011;44527;47.460;19.016;2023-02-01T15:45:34;3.60;;;1.20;;
58756;SDS011;44527;47.460;19.016;2023-02-01T15:48:38;2.53;;;1.17;;
58756;SDS011;44527;47.460;19.016;2023-02-01T15:51:45;2.53;;;1.30;;
58756;SDS011;44527;47.460;19.016;2023-02-01T15:54:50;2.62;;;1.17;;
58756;SDS011;44527;47.460;19.016;2023-02-01T15:57:56;4.85;;;1.20;;
58756;SDS011;44527;47.460;19.016;2023-02-01T16:01:03;3.75;;;1.23;;
58756;SDS011;44527;47.460;19.016;2023-02-01T16:04:25;4.37;;;1.37;;
58756;SDS011;44527;47.460;19.016;2023-02-01T16:07:33;4.80;;;1.80;;
58756;SDS011;44527;47.460;19.016;2023-02-01T16:10:40;6.10;;;1.15;;
58756;SDS011;44527;47.460;19.016;2023-02-01T16:13:48;2.65;;;0.73;;
58756;SDS011;44527;47.460;19.016;2023-02-01T16:16:51;2.70;;;0.70;;
58756;SDS011;44527;47.460;19.016;2023-02-01T16:19:56;1.35;;;0.70;;
58756;SDS011;44527;47.460;19.016;2023-02-01T16:23:00;2.95;;;1.02;;
58756;SDS011;44527;47.460;19.016;2023-02-01T16:26:04;2.00;;;0.90;;
58756;SDS011;44527;47.460;19.016;2023-02-01T16:29:08;4.87;;;0.95;;
58756;SDS011;44527;47.460;19.016;2023-02-01T16:32:15;1.23;;;0.70;;
58756;SDS011;44527;47.460;19.016;2023-02-01T16:35:23;2.45;;;1.02;;
58756;SDS011;44527;47.460;19.016;2023-02-01T16:38:27;1.75;;;0.93;;
58756;SDS011;44527;47.460;19.016;2023-02-01T16:41:30;2.47;;;1.00;;
58756;SDS011;44527;47.460;19.016;2023-02-01T16:44:33;3.33;;;1.27;;
58756;SDS011;44527;47.460;19.016;2023-02-01T16:47:36;11.35;;;1.80;;
58756;SDS011;44527;47.460;19.016;2023-02-01T16:50:40;4.65;;;1.12;;
58756;SDS011;44527;47.460;19.016;2023-02-01T16:53:52;3.85;;;1.30;;
58756;SDS011;44527;47.460;19.016;2023-02-01T16:56:56;4.37;;;1.33;;
58756;SDS011;44527;47.460;19.016;2023-02-01T16:59:58;2.15;;;1.20;;
58756;SDS011;44527;47.460;19.016;2023-02-01T17:03:24;8.88;;;1.98;;
58756;SDS011;44527;47.460;19.016;2023-02-01T17:06:27;3.47;;;1.48;;
58756;SDS011;44527;47.460;19.016;2023-02-01T17:09:29;2.92;;;1.35;;
58756;SDS011;44527;47.460;19.016;2023-02-01T17:12:32;3.80;;;1.67;;
58756;SDS011;44527;47.460;19.016;2023-02-01T17:15:35;3.45;;;1.50;;
58756;SDS011;44527;47.460;19.016;2023-02-01T17:18:38;3.40;;;1.70;;
58756;SDS011;44527;47.460;19.016;2023-02-01T17:21:43;3.50;;;1.60;;
58756;SDS011;44527;47.460;19.016;2023-02-01T17:24:48;3.03;;;1.77;;
58756;SDS011;44527;47.460;19.016;2023-02-01T17:27:52;4.72;;;2.00;;
58756;SDS011;44527;47.460;19.016;2023-02-01T17:30:54;3.65;;;1.80;;
58756;SDS011;44527;47.460;19.016;2023-02-01T17:33:58;5.62;;;1.87;;
58756;SDS011;44527;47.460;19.016;2023-02-01T17:37:00;5.10;;;1.95;;
58756;SDS011;44527;47.460;19.016;2023-02-01T17:40:03;4.35;;;1.70;;
58756;SDS011;44527;47.460;19.016;2023-02-01T17:43:08;7.05;;;2.05;;
58756;SDS011;44527;47.460;19.016;2023-02-01T17:46:31;3.30;;;1.80;;
58756;SDS011;44527;47.460;19.016;2023-02-01T17:49:34;7.12;;;2.55;;
58756;SDS011;44527;47.460;19.016;2023-02-01T17:52:37;4.97;;;1.98;;
58756;SDS011;44527;47.460;19.016;2023-02-01T17:55:40;7.72;;;2.20;;
58756;SDS011;44527;47.460;19.016;2023-02-01T17:58:45;6.07;;;2.12;;
58756;SDS011;44527;47.460;19.016;2023-02-01T18:01:54;7.32;;;1.52;;
58756;SDS011;44527;47.460;19.016;2023-02-01T18:05:04;3.95;;;1.58;;
58756;SDS011;44527;47.460;19.016;2023-02-01T18:08:14;6.05;;;1.80;;
58756;SDS011;44527;47.460;19.016;2023-02-01T18:11:18;2.92;;;1.80;;
58756;SDS011;44527;47.460;19.016;2023-02-01T18:14:22;5.40;;;1.60;;
58756;SDS011;44527;47.460;19.016;2023-02-01T18:17:25;4.15;;;2.12;;
58756;SDS011;44527;47.460;19.016;2023-02-01T18:20:27;5.65;;;1.80;;
58756;SDS011;44527;47.460;19.016;2023-02-01T18:23:29;2.85;;;1.23;;
58756;SDS011;44527;47.460;19.016;2023-02-01T18:26:32;3.83;;;1.55;;
58756;SDS011;44527;47.460;19.016;2023-02-01T18:29:35;2.87;;;1.33;;
58756;SDS011;44527;47.460;19.016;2023-02-01T18:32:37;2.65;;;1.40;;
58756;SDS011;44527;47.460;19.016;2023-02-01T18:35:40;2.42;;;1.30;;
58756;SDS011;44527;47.460;19.016;2023-02-01T18:38:43;3.75;;;1.52;;
58756;SDS011;44527;47.460;19.016;2023-02-01T18:41:47;2.50;;;1.33;;
58756;SDS011;44527;47.460;19.016;2023-02-01T18:44:50;4.53;;;1.15;;
58756;SDS011;44527;47.460;19.016;2023-02-01T18:47:53;4.07;;;1.40;;
58756;SDS011;44527;47.460;19.016;2023-02-01T18:50:55;3.22;;;1.00;;
58756;SDS011;44527;47.460;19.016;2023-02-01T18:53:59;1.87;;;1.00;;
58756;SDS011;44527;47.460;19.016;2023-02-01T18:57:02;3.33;;;1.42;;
58756;SDS011;44527;47.460;19.016;2023-02-01T19:00:07;5.00;;;1.48;;
58756;SDS011;44527;47.460;19.016;2023-02-01T19:03:12;2.87;;;0.90;;
58756;SDS011;44527;47.460;19.016;2023-02-01T19:06:16;2.03;;;1.25;;
58756;SDS011;44527;47.460;19.016;2023-02-01T19:09:19;3.85;;;1.42;;
58756;SDS011;44527;47.460;19.016;2023-02-01T19:12:21;2.37;;;1.20;;
58756;SDS011;44527;47.460;19.016;2023-02-01T19:15:24;2.75;;;1.52;;
58756;SDS011;44527;47.460;19.016;2023-02-01T19:18:28;2.53;;;0.93;;
58756;SDS011;44527;47.460;19.016;2023-02-01T19:21:31;4.10;;;1.33;;
58756;SDS011;44527;47.460;19.016;2023-02-01T19:24:33;2.67;;;1.10;;
58756;SDS011;44527;47.460;19.016;2023-02-01T19:27:36;2.45;;;1.20;;
58756;SDS011;44527;47.460;19.016;2023-02-01T19:30:39;1.60;;;1.10;;
58756;SDS011;44527;47.460;19.016;2023-02-01T19:33:41;6.07;;;1.50;;
58756;SDS011;44527;47.460;19.016;2023-02-01T19:36:44;1.50;;;1.00;;
58756;SDS011;44527;47.460;19.016;2023-02-01T19:39:46;2.22;;;1.00;;
58756;SDS011;44527;47.460;19.016;2023-02-01T19:42:49;2.30;;;1.15;;
58756;SDS011;44527;47.460;19.016;2023-02-01T19:45:52;2.10;;;1.25;;
58756;SDS011;44527;47.460;19.016;2023-02-01T19:48:55;3.67;;;1.05;;
58756;SDS011;44527;47.460;19.016;2023-02-01T19:51:58;5.43;;;1.35;;
58756;SDS011;44527;47.460;19.016;2023-02-01T19:55:01;3.20;;;1.35;;
58756;SDS011;44527;47.460;19.016;2023-02-01T19:58:05;2.85;;;1.17;;
58756;SDS011;44527;47.460;19.016;2023-02-01T20:01:07;5.68;;;0.98;;
58756;SDS011;44527;47.460;19.016;2023-02-01T20:04:10;6.35;;;1.35;;
58756;SDS011;44527;47.460;19.016;2023-02-01T20:07:14;2.00;;;1.00;;
58756;SDS011;44527;47.460;19.016;2023-02-01T20:10:17;2.47;;;1.15;;
58756;SDS011;44527;47.460;19.016;2023-02-01T20:13:19;5.05;;;1.60;;
58756;SDS011;44527;47.460;19.016;2023-02-01T20:16:23;5.65;;;1.30;;
58756;SDS011;44527;47.460;19.016;2023-02-01T20:19:26;3.70;;;1.58;;